Time;durP1;ratioP1;P1;durP2;ratioP2;P2;SDS_P1;SDS_P2;PMS_P1;PMS_P2;Temp;Humidity;BMP_temperature;BMP_pressure;BME280_temperature;BME280_humidity;BME280_pressure;Samples;Min_cycle;Max_cycle;Signal;HPM_P1;HPM_P2
2022/04/05 00:00:52;;;;;;;27.70;15.95;;;;;;;9.23;100.00;100478.22;5070921;28;20106;-63
2022/04/05 00:03:18;;;;;;;24.45;15.10;;;;;;;9.23;100.00;100481.69;5071238;28;20646;-62
2022/04/05 00:05:43;;;;;;;26.52;14.95;;;;;;;9.20;100.00;100467.84;5071308;28;20043;-62
2022/04/05 00:08:09;;;;;;;24.38;13.52;;;;;;;9.20;100.00;100467.84;5070877;28;20052;-62
2022/04/05 00:10:36;;;;;;;24.45;14.85;;;;;;;9.19;100.00;100474.09;5071565;28;20031;-62
2022/04/05 00:13:01;;;;;;;26.48;14.20;;;;;;;9.18;100.00;100481.22;5071204;28;20020;-62
2022/04/05 00:15:27;;;;;;;27.38;14.40;;;;;;;9.17;100.00;100478.69;5065601;28;20124;-62
2022/04/05 00:17:52;;;;;;;23.63;13.45;;;;;;;9.16;100.00;100479.63;5050865;28;20104;-61
2022/04/05 00:20:17;;;;;;;22.60;13.38;;;;;;;9.14;100.00;100484.19;5050956;28;20075;-61
2022/04/05 00:22:43;;;;;;;25.98;13.95;;;;;;;9.15;100.00;100483.25;5051445;28;20341;-61
2022/04/05 00:25:08;;;;;;;23.38;13.93;;;;;;;9.14;100.00;100484.19;5050952;28;20032;-61
2022/04/05 00:27:34;;;;;;;23.70;13.65;;;;;;;9.13;100.00;100493.13;5050730;28;20098;-61
2022/04/05 00:29:59;;;;;;;28.77;13.32;;;;;;;9.15;100.00;100488.56;5053852;28;20031;-60
2022/04/05 00:32:25;;;;;;;27.88;13.43;;;;;;;9.14;100.00;100489.50;5071077;28;20392;-61
2022/04/05 00:34:50;;;;;;;27.20;13.77;;;;;;;9.11;100.00;100481.78;5069930;28;20107;-61
2022/04/05 00:37:16;;;;;;;29.08;13.73;;;;;;;9.12;100.00;100481.66;5070623;28;20127;-61
2022/04/05 00:39:41;;;;;;;25.83;14.20;;;;;;;9.12;100.00;100478.19;5070597;28;20064;-61
2022/04/05 00:42:09;;;;;;;26.55;13.70;;;;;;;9.12;100.00;100483.47;5069962;28;20453;-62
2022/04/05 00:44:35;;;;;;;25.85;14.02;;;;;;;9.11;100.00;100480.00;5070683;28;20029;-61
2022/04/05 00:47:19;;;;;;;23.10;13.50;;;;;;;9.10;100.00;100480.94;5070551;28;20566;-61
2022/04/05 00:49:47;;;;;;;27.60;13.88;;;;;;;9.10;100.00;100485.41;5064611;28;20108;-62
2022/04/05 00:52:17;;;;;;;24.42;13.88;;;;;;;9.10;100.00;100488.06;5050434;28;20032;-61
2022/04/05 00:54:45;;;;;;;22.15;13.43;;;;;;;9.08;100.00;100482.88;5064677;28;20423;-61
2022/04/05 00:57:12;;;;;;;27.73;14.65;;;;;;;9.08;100.00;100491.66;5070362;28;20111;-62
2022/04/05 00:59:42;;;;;;;32.50;14.52;;;;;;;9.08;100.00;100493.47;5070330;28;20074;-61
2022/04/05 01:02:13;;;;;;;24.65;14.60;;;;;;;9.07;100.00;100487.31;5069428;28;20032;-61
2022/04/05 01:04:42;;;;;;;24.05;15.15;;;;;;;9.07;100.00;100486.47;5070185;28;20464;-61
2022/04/05 01:07:14;;;;;;;27.58;15.05;;;;;;;9.06;100.00;100483.00;5069699;28;20035;-61
2022/04/05 01:09:39;;;;;;;24.70;15.15;;;;;;;9.05;100.00;100483.94;5070255;28;20489;-61
2022/04/05 01:12:07;;;;;;;25.50;15.23;;;;;;;9.05;100.00;100488.41;5070294;28;20044;-61
2022/04/05 01:14:32;;;;;;;27.48;15.77;;;;;;;9.04;100.00;100481.41;5069750;28;20094;-62
2022/04/05 01:16:57;;;;;;;29.52;14.35;;;;;;;9.03;100.00;100483.22;5070122;28;20070;-61
2022/04/05 01:19:24;;;;;;;28.95;15.20;;;;;;;9.03;100.00;100495.63;5069643;28;20527;-62
2022/04/05 01:21:49;;;;;;;25.55;14.55;;;;;;;9.03;100.00;100492.97;5070443;28;20071;-61
2022/04/05 01:24:15;;;;;;;28.23;14.70;;;;;;;9.03;100.00;100495.63;5060621;28;20037;-62
2022/04/05 01:26:47;;;;;;;29.15;15.25;;;;;;;9.01;100.00;100501.03;5049690;28;20049;-62
2022/04/05 01:29:13;;;;;;;26.90;14.15;;;;;;;9.02;100.00;100499.22;5050768;28;20037;-62
2022/04/05 01:31:50;;;;;;;27.45;13.98;;;;;;;9.01;100.00;100497.53;5049821;28;20037;-62
2022/04/05 01:34:20;;;;;;;23.02;15.43;;;;;;;9.00;100.00;100498.50;5050313;28;20498;-62
2022/04/05 01:36:50;;;;;;;30.27;14.70;;;;;;;9.00;100.00;100501.16;5050116;28;20028;-62
2022/04/05 01:39:19;;;;;;;27.15;15.40;;;;;;;8.99;100.00;100496.81;5057159;28;20036;-62
2022/04/05 01:41:46;;;;;;;22.77;14.25;;;;;;;9.00;100.00;100503.81;5069818;28;20025;-62
2022/04/05 01:44:13;;;;;;;23.42;13.75;;;;;;;8.99;100.00;100500.31;5069330;28;20033;-62
2022/04/05 01:46:39;;;;;;;28.77;13.77;;;;;;;9.00;100.00;100498.50;5069736;28;20033;-62
2022/04/05 01:49:09;;;;;;;23.00;14.35;;;;;;;9.00;100.00;100496.69;5069878;28;20466;-61
2022/04/05 01:51:36;;;;;;;26.85;15.13;;;;;;;9.00;100.00;100501.16;5069786;28;20025;-62
2022/04/05 01:54:05;;;;;;;25.63;13.52;;;;;;;9.00;100.00;100502.00;5069319;28;20448;-62
2022/04/05 01:56:32;;;;;;;27.00;13.17;;;;;;;8.98;100.00;100503.91;5062111;28;20021;-61
2022/04/05 01:58:57;;;;;;;24.98;13.25;;;;;;;8.99;100.00;100499.47;5049614;28;20116;-61
2022/04/05 02:01:22;;;;;;;23.13;13.30;;;;;;;8.99;100.00;100499.47;5050215;28;20119;-61
2022/04/05 02:03:47;;;;;;;22.38;12.45;;;;;;;8.98;100.00;100495.97;5060183;28;20020;-61
2022/04/05 02:06:13;;;;;;;22.65;12.85;;;;;;;8.98;100.00;100497.78;5069918;28;20036;-62
2022/04/05 02:08:39;;;;;;;21.23;12.55;;;;;;;8.96;100.00;100500.56;5069710;28;20075;-62
2022/04/05 02:11:04;;;;;;;21.08;13.63;;;;;;;8.97;100.00;100502.22;5051673;28;20025;-61
2022/04/05 02:13:29;;;;;;;19.65;12.13;;;;;;;8.96;100.00;100495.25;5049560;28;20108;-61
2022/04/05 02:15:55;;;;;;;20.77;12.48;;;;;;;8.97;100.00;100501.38;5056391;28;20426;-62
2022/04/05 02:18:20;;;;;;;21.23;12.20;;;;;;;8.96;100.00;100504.97;5073498;28;20032;-62
2022/04/05 02:20:49;;;;;;;21.20;12.52;;;;;;;8.95;100.00;100504.16;5073178;28;20032;-61
2022/04/05 02:23:14;;;;;;;21.67;12.55;;;;;;;8.95;100.00;100501.50;5058736;28;20124;-62
2022/04/05 02:25:40;;;;;;;20.33;12.77;;;;;;;8.95;100.00;100503.31;5100495;22;20059;-63
2022/04/05 02:28:06;;;;;;;21.75;12.45;;;;;;;8.95;100.00;100509.44;5093324;28;20469;-63
2022/04/05 02:30:32;;;;;;;18.52;11.95;;;;;;;8.94;100.00;100502.44;5093890;28;20111;-63
2022/04/05 02:32:57;;;;;;;22.20;12.52;;;;;;;8.94;100.00;100502.44;5075872;28;20028;-63
2022/04/05 02:35:23;;;;;;;23.38;12.68;;;;;;;8.94;100.00;100507.75;5090464;28;20416;-63
2022/04/05 02:37:48;;;;;;;20.73;12.85;;;;;;;8.94;100.00;100510.41;5092030;28;20028;-62
2022/04/05 02:40:13;;;;;;;19.08;12.75;;;;;;;8.96;100.00;100507.63;5093041;28;20047;-62
2022/04/05 02:42:39;;;;;;;24.67;13.52;;;;;;;8.95;100.00;100506.78;5073398;28;20493;-62
2022/04/05 02:45:05;;;;;;;20.77;13.10;;;;;;;8.95;100.00;100500.66;5080350;28;20114;-62
2022/04/05 02:47:31;;;;;;;21.35;13.25;;;;;;;8.94;100.00;100515.69;5078490;28;20027;-63
2022/04/05 02:49:56;;;;;;;26.70;13.43;;;;;;;8.92;100.00;100499.06;5073477;28;20474;-63
2022/04/05 02:52:21;;;;;;;22.63;13.80;;;;;;;8.95;100.00;100506.78;5073063;28;20074;-63
2022/04/05 02:54:46;;;;;;;21.13;13.18;;;;;;;8.95;100.00;100501.50;5088936;28;20028;-62
2022/04/05 02:57:12;;;;;;;21.98;13.98;;;;;;;8.93;100.00;100498.13;5092416;28;20229;-62
2022/04/05 02:59:38;;;;;;;20.35;13.20;;;;;;;8.95;100.00;100503.31;5078743;28;20416;-62
2022/04/05 03:02:03;;;;;;;21.65;13.05;;;;;;;8.93;100.00;100497.28;5072633;28;20056;-63
2022/04/05 03:04:28;;;;;;;22.58;13.02;;;;;;;8.92;100.00;100499.06;5072794;28;20029;-62
2022/04/05 03:06:53;;;;;;;17.80;12.27;;;;;;;8.95;100.00;100503.31;5072641;28;20050;-62
2022/04/05 03:09:19;;;;;;;23.02;12.70;;;;;;;8.94;100.00;100501.63;5072963;28;20086;-62
2022/04/05 03:11:44;;;;;;;24.30;14.15;;;;;;;8.90;100.00;100490.41;5082193;28;20029;-62
2022/04/05 03:14:12;;;;;;;20.20;13.07;;;;;;;8.94;100.00;100505.09;5072755;28;20024;-63
2022/04/05 03:16:37;;;;;;;24.08;13.55;;;;;;;8.94;100.00;100498.97;5072328;28;20098;-62
2022/04/05 03:19:07;;;;;;;22.50;13.50;;;;;;;8.92;100.00;100499.06;5072771;28;20033;-62
2022/04/05 03:21:33;;;;;;;18.73;12.45;;;;;;;8.92;100.00;100499.06;5072774;28;20508;-62
2022/04/05 03:23:58;;;;;;;22.30;12.48;;;;;;;8.94;100.00;100505.09;5072718;28;20115;-62
2022/04/05 03:26:23;;;;;;;21.90;13.13;;;;;;;8.93;100.00;100499.94;5071960;28;20319;-62
2022/04/05 03:28:49;;;;;;;23.95;13.45;;;;;;;8.92;100.00;100499.06;5072371;28;20128;-62
2022/04/05 03:31:14;;;;;;;18.35;12.57;;;;;;;8.92;100.00;100503.53;5072486;28;20027;-62
2022/04/05 03:33:40;;;;;;;23.23;13.55;;;;;;;8.92;100.00;100501.72;5073153;28;20024;-62
2022/04/05 03:36:05;;;;;;;23.17;14.07;;;;;;;8.91;100.00;100502.69;5092541;28;20016;-63
2022/04/05 03:38:30;;;;;;;21.00;13.23;;;;;;;8.88;100.00;100498.47;5085806;28;20036;-62
2022/04/05 03:40:56;;;;;;;20.05;13.30;;;;;;;8.89;100.00;100496.66;5072211;28;20115;-63
2022/04/05 03:43:22;;;;;;;22.42;13.38;;;;;;;8.89;100.00;100500.16;5072254;28;20028;-62
2022/04/05 03:45:47;;;;;;;22.92;13.23;;;;;;;8.89;100.00;100496.66;5087646;28;20063;-63
2022/04/05 03:48:13;;;;;;;23.17;12.75;;;;;;;8.88;100.00;100494.97;5092552;28;20245;-63
2022/04/05 03:50:38;;;;;;;20.75;13.18;;;;;;;8.88;100.00;100497.63;5092392;28;20024;-62
2022/04/05 03:53:03;;;;;;;21.73;13.07;;;;;;;8.86;100.00;100494.25;5072959;28;20360;-63
2022/04/05 03:55:29;;;;;;;21.63;13.18;;;;;;;8.87;100.00;100501.22;5071867;28;20021;-62
2022/04/05 03:57:54;;;;;;;20.10;12.57;;;;;;;8.87;100.00;100501.22;5071976;28;20020;-63
2022/04/05 04:00:19;;;;;;;18.08;12.27;;;;;;;8.86;100.00;100492.44;5071863;28;20046;-62
2022/04/05 04:02:44;;;;;;;20.60;12.15;;;;;;;8.86;100.00;100500.41;5071920;28;20099;-62
2022/04/05 04:05:10;;;;;;;20.33;12.45;;;;;;;8.86;100.00;100491.63;5071955;28;20056;-62
2022/04/05 04:07:39;;;;;;;19.40;12.70;;;;;;;8.85;100.00;100492.56;5071792;28;20029;-62
2022/04/05 04:10:05;;;;;;;;;;;;;;;8.90;100.00;100498.34;5072016;28;20066;-63
2022/04/05 04:12:31;;;;;;;20.08;12.10;;;;;;;8.86;100.00;100494.25;5071627;28;20324;-63
2022/04/05 04:14:57;;;;;;;19.83;12.98;;;;;;;8.84;100.00;100499.66;5071682;28;20031;-63
2022/04/05 04:17:23;;;;;;;19.73;12.02;;;;;;;8.84;100.00;100494.38;5071446;28;20537;-63
2022/04/05 04:19:48;;;;;;;18.48;12.77;;;;;;;8.84;100.00;100489.06;5071512;28;20425;-63
2022/04/05 04:22:13;;;;;;;21.17;12.35;;;;;;;8.84;100.00;100493.50;5071353;28;20051;-62
2022/04/05 04:24:38;;;;;;;19.13;13.32;;;;;;;8.84;100.00;100496.16;5071400;28;20028;-63
2022/04/05 04:27:04;;;;;;;19.13;12.27;;;;;;;8.83;100.00;100490.03;5070726;28;20040;-62
2022/04/05 04:29:29;;;;;;;19.30;12.20;;;;;;;8.82;100.00;100493.63;5071576;28;20398;-63
2022/04/05 04:31:54;;;;;;;21.35;12.80;;;;;;;8.82;100.00;100493.63;5071134;28;20037;-63
2022/04/05 04:34:19;;;;;;;20.20;13.02;;;;;;;8.83;100.00;100494.50;5053366;28;20510;-63
2022/04/05 04:36:45;;;;;;;18.77;13.10;;;;;;;8.81;100.00;100497.25;5070031;28;20081;-63
2022/04/05 04:39:10;;;;;;;20.38;12.23;;;;;;;8.82;100.00;100492.78;5070819;28;20060;-62
2022/04/05 04:41:35;;;;;;;18.13;12.77;;;;;;;8.84;100.00;100498.81;5070820;28;20032;-62
2022/04/05 04:44:01;;;;;;;18.85;12.30;;;;;;;8.82;100.00;100495.44;5071014;28;20028;-63
2022/04/05 04:46:26;;;;;;;18.33;12.93;;;;;;;8.84;100.00;100506.75;5070946;28;20041;-63
2022/04/05 04:48:51;;;;;;;18.60;11.90;;;;;;;8.83;100.00;100500.63;5070630;28;20036;-62
2022/04/05 04:51:17;;;;;;;18.45;12.27;;;;;;;8.84;100.00;100504.09;5070727;28;20028;-62
2022/04/05 04:53:42;;;;;;;16.50;12.55;;;;;;;8.81;100.00;100499.91;5068390;28;20485;-62
2022/04/05 04:56:08;;;;;;;16.85;12.57;;;;;;;8.83;100.00;100503.25;5070970;28;20033;-62
2022/04/05 04:58:33;;;;;;;18.02;12.13;;;;;;;8.80;100.00;100500.00;5070704;28;20111;-63
2022/04/05 05:00:59;;;;;;;18.00;12.77;;;;;;;8.80;100.00;100503.50;5070563;28;20036;-62
2022/04/05 05:03:24;;;;;;;17.17;12.60;;;;;;;8.80;100.00;100500.84;5071050;28;20025;-62
2022/04/05 05:05:49;;;;;;;18.60;13.27;;;;;;;8.81;100.00;100501.69;5070562;28;20047;-63
2022/04/05 05:08:14;;;;;;;15.38;12.88;;;;;;;8.80;100.00;100503.50;5070676;28;20040;-62
2022/04/05 05:10:40;;;;;;;17.90;13.70;;;;;;;8.81;100.00;100504.31;5070578;28;20033;-62
2022/04/05 05:13:05;;;;;;;16.33;12.70;;;;;;;8.82;100.00;100500.72;5070614;28;20024;-62
2022/04/05 05:15:30;;;;;;;16.35;12.52;;;;;;;8.81;100.00;100499.91;5069967;28;20039;-63
2022/04/05 05:17:56;;;;;;;15.25;12.45;;;;;;;8.81;100.00;100502.53;5091371;28;20054;-61
2022/04/05 05:20:21;;;;;;;17.90;12.20;;;;;;;8.81;100.00;100502.53;5088990;28;20016;-61
2022/04/05 05:22:47;;;;;;;18.42;12.55;;;;;;;8.81;100.00;100505.19;5092218;28;20052;-62
2022/04/05 05:25:12;;;;;;;16.73;12.25;;;;;;;8.82;100.00;100516.63;5085385;28;20035;-62
2022/04/05 05:27:38;;;;;;;19.67;12.80;;;;;;;8.80;100.00;100503.50;5071210;28;20538;-62
2022/04/05 05:30:08;;;;;;;17.75;12.35;;;;;;;8.80;100.00;100507.94;5070362;28;20407;-62
2022/04/05 05:32:44;;;;;;;17.75;12.27;;;;;;;8.80;100.00;100513.25;5070238;28;20063;-62
2022/04/05 05:35:16;;;;;;;16.48;11.73;;;;;;;8.80;100.00;100513.25;5070206;28;20033;-61
2022/04/05 05:37:42;;;;;;;18.73;12.43;;;;;;;8.79;100.00;100512.41;5052511;28;20039;-62
2022/04/05 05:40:09;;;;;;;21.23;14.05;;;;;;;8.79;100.00;100519.50;5069275;28;20032;-61
2022/04/05 05:42:34;;;;;;;17.85;13.05;;;;;;;8.80;100.00;100521.19;5073422;28;20036;-61
2022/04/05 05:44:59;;;;;;;18.67;13.05;;;;;;;8.80;100.00;100516.72;5074034;28;20040;-62
2022/04/05 05:47:25;;;;;;;17.67;13.73;;;;;;;8.80;100.00;100526.50;5089244;28;20123;-61
2022/04/05 05:49:50;;;;;;;18.75;14.32;;;;;;;8.79;100.00;100528.31;5094311;28;20028;-61
2022/04/05 05:52:15;;;;;;;24.00;14.90;;;;;;;8.80;100.00;100532.63;5083282;28;20490;-62
2022/04/05 05:54:41;;;;;;;20.40;14.80;;;;;;;8.80;100.00;100529.13;5084799;28;20032;-61
2022/04/05 05:57:07;;;;;;;22.25;14.52;;;;;;;8.79;100.00;100536.25;5087086;28;20036;-62
2022/04/05 05:59:33;;;;;;;19.85;14.23;;;;;;;8.80;100.00;100537.91;5076205;28;20028;-62
2022/04/05 06:01:59;;;;;;;18.67;14.32;;;;;;;8.80;100.00;100531.78;5079561;28;20039;-61
2022/04/05 06:04:24;;;;;;;21.00;14.60;;;;;;;8.81;100.00;100538.75;5081309;28;20039;-63
2022/04/05 06:06:50;;;;;;;20.60;14.55;;;;;;;8.83;100.00;100531.56;5081636;28;20067;-62
2022/04/05 06:09:15;;;;;;;19.70;13.77;;;;;;;8.83;100.00;100543.00;5079374;28;20019;-62
2022/04/05 06:11:40;;;;;;;16.40;13.27;;;;;;;8.82;100.00;100540.44;5076960;28;20041;-62
2022/04/05 06:14:06;;;;;;;19.60;13.23;;;;;;;8.82;100.00;100543.09;5074741;28;20025;-61
2022/04/05 06:16:31;;;;;;;19.05;12.95;;;;;;;8.81;100.00;100536.09;5074755;28;20047;-61
2022/04/05 06:18:56;;;;;;;20.13;13.00;;;;;;;8.82;100.00;100540.44;5077874;28;20040;-62
2022/04/05 06:21:22;;;;;;;23.10;13.48;;;;;;;8.84;100.00;100543.81;5074617;28;20033;-62
2022/04/05 06:23:47;;;;;;;16.83;12.57;;;;;;;8.84;100.00;100547.34;5074679;28;20413;-61
2022/04/05 06:26:12;;;;;;;21.88;12.88;;;;;;;8.85;100.00;100548.19;5073941;28;20045;-61
2022/04/05 06:28:38;;;;;;;18.35;12.77;;;;;;;8.86;100.00;100547.22;5073099;28;20094;-61
2022/04/05 06:31:03;;;;;;;21.70;12.43;;;;;;;8.86;100.00;100550.72;5090372;28;20359;-61
2022/04/05 06:33:28;;;;;;;16.83;13.32;;;;;;;8.87;100.00;100555.03;5093357;28;20348;-61
2022/04/05 06:35:57;;;;;;;18.80;12.18;;;;;;;8.88;100.00;100554.09;5092134;28;20028;-61
2022/04/05 06:38:23;;;;;;;16.13;11.30;;;;;;;8.90;100.00;100564.56;5074064;28;20040;-62
2022/04/05 06:40:49;;;;;;;16.60;11.07;;;;;;;8.91;100.00;100562.75;5074327;28;20459;-62
2022/04/05 06:43:16;;;;;;;14.38;11.75;;;;;;;8.92;100.00;100554.69;5073979;28;20039;-62
2022/04/05 06:45:43;;;;;;;17.83;11.35;;;;;;;8.92;100.00;100562.63;5087508;28;20119;-61
2022/04/05 06:48:09;;;;;;;17.90;10.98;;;;;;;8.96;100.00;100563.25;5095557;28;20040;-62
2022/04/05 06:50:36;;;;;;;15.77;9.95;;;;;;;8.97;100.00;100565.78;5095471;28;20442;-62
2022/04/05 06:53:01;;;;;;;20.20;11.18;;;;;;;8.98;100.00;100571.97;5084268;28;20036;-62
2022/04/05 06:55:27;;;;;;;19.38;10.30;;;;;;;8.96;100.00;100564.13;5095202;28;20035;-62
2022/04/05 06:57:53;;;;;;;18.63;10.00;;;;;;;9.00;100.00;100567.38;5095591;28;20074;-62
2022/04/05 07:00:22;;;;;;;17.83;10.10;;;;;;;9.01;100.00;100566.41;5084834;28;20055;-62
2022/04/05 07:02:47;;;;;;;19.40;10.43;;;;;;;9.02;100.00;100578.69;5088219;28;20040;-62
2022/04/05 07:05:13;;;;;;;20.77;11.00;;;;;;;9.02;100.00;100573.41;5095252;28;20080;-62
2022/04/05 07:07:39;;;;;;;17.13;10.32;;;;;;;9.02;100.00;100576.88;5079964;28;20067;-62
2022/04/05 07:10:06;;;;;;;18.45;10.02;;;;;;;9.03;100.00;100578.59;5075011;28;20033;-62
2022/04/05 07:12:32;;;;;;;17.20;9.55;;;;;;;9.04;100.00;100579.44;5074556;28;20052;-62
2022/04/05 07:14:57;;;;;;;15.43;9.52;;;;;;;9.04;100.00;100582.06;5073762;28;20033;-62
2022/04/05 07:17:22;;;;;;;16.38;9.32;;;;;;;9.04;100.00;100575.00;5073411;28;20032;-62
2022/04/05 07:19:47;;;;;;;15.98;9.50;;;;;;;9.05;100.00;100570.53;5072326;28;20056;-62
2022/04/05 07:22:13;;;;;;;14.10;9.52;;;;;;;9.06;100.00;100582.84;5071894;28;20043;-62
2022/04/05 07:24:38;;;;;;;17.50;9.90;;;;;;;9.07;100.00;100579.19;5072165;28;20029;-62
2022/04/05 07:27:03;;;;;;;15.05;8.80;;;;;;;9.08;100.00;100572.97;5071370;28;20070;-63
2022/04/05 07:29:29;;;;;;;14.43;8.65;;;;;;;9.09;100.00;100577.28;5072357;28;20020;-62
2022/04/05 07:31:54;;;;;;;15.90;9.68;;;;;;;9.10;100.00;100570.19;5071383;28;20405;-61
2022/04/05 07:34:19;;;;;;;16.30;8.68;;;;;;;9.11;100.00;100571.88;5069326;28;20097;-61
2022/04/05 07:36:44;;;;;;;16.45;9.13;;;;;;;9.10;100.00;100576.31;5070918;28;20428;-61
2022/04/05 07:39:10;;;;;;;11.43;8.20;;;;;;;9.12;100.00;100569.09;5070505;28;20032;-61
2022/04/05 07:41:35;;;;;;;12.82;8.32;;;;;;;9.12;100.00;100568.28;5070940;28;20021;-61
2022/04/05 07:44:01;;;;;;;14.65;7.63;;;;;;;9.12;100.00;100573.56;5070492;28;20047;-62
2022/04/05 07:46:26;;;;;;;14.00;8.35;;;;;;;9.14;100.00;100572.47;5069206;28;20039;-61
2022/04/05 07:48:51;;;;;;;16.30;8.02;;;;;;;9.16;100.00;100572.38;5070708;28;20498;-61
2022/04/05 07:51:17;;;;;;;11.40;7.53;;;;;;;9.19;100.00;100573.00;5070502;28;20027;-61
2022/04/05 07:53:44;;;;;;;13.55;8.30;;;;;;;9.20;100.00;100571.19;5070615;28;20078;-61
2022/04/05 07:56:12;;;;;;;14.32;8.30;;;;;;;9.21;100.00;100570.25;5071147;28;20024;-61
2022/04/05 07:58:39;;;;;;;14.13;8.65;;;;;;;9.23;100.00;100574.44;5055060;28;20028;-61
2022/04/05 08:01:04;;;;;;;15.98;8.38;;;;;;;9.26;100.00;100584.00;5070436;28;20041;-62
2022/04/05 08:03:29;;;;;;;14.95;7.93;;;;;;;9.27;100.00;100572.41;5072927;28;20036;-62
2022/04/05 08:05:54;;;;;;;15.82;8.40;;;;;;;9.28;100.00;100575.91;5070237;28;20048;-61
2022/04/05 08:08:20;;;;;;;13.13;7.82;;;;;;;9.29;100.00;100573.13;5072726;28;20044;-61
2022/04/05 08:10:46;;;;;;;11.90;7.60;;;;;;;9.31;100.00;100571.22;5069871;28;20107;-61
2022/04/05 08:13:11;;;;;;;12.82;7.10;;;;;;;9.33;100.00;100571.13;5069901;28;20060;-61
2022/04/05 08:15:39;;;;;;;13.88;7.80;;;;;;;9.35;100.00;100572.66;5069977;28;20031;-61
2022/04/05 08:18:05;;;;;;;14.15;7.22;;;;;;;9.35;100.00;100571.84;5072470;28;20555;-61
2022/04/05 08:20:31;;;;;;;12.60;7.57;;;;;;;9.37;100.00;100570.75;5070242;28;20111;-61
2022/04/05 08:22:56;;;;;;;14.07;7.20;;;;;;;9.39;100.00;100578.59;5068997;28;20041;-61
2022/04/05 08:25:21;;;;;;;11.63;6.85;;;;;;;9.42;100.00;100581.00;5070525;28;20071;-61
2022/04/05 08:27:48;;;;;;;16.38;7.47;;;;;;;9.38;100.00;100575.09;5070906;28;20049;-61
2022/04/05 08:30:15;;;;;;;10.43;6.80;;;;;;;9.45;100.00;100581.59;5070655;28;20436;-61
2022/04/05 08:32:42;;;;;;;11.93;7.28;;;;;;;9.49;100.00;100581.38;5070576;28;20033;-61
2022/04/05 08:35:08;;;;;;;13.27;6.90;;;;;;;9.51;100.00;100588.28;5070685;28;20359;-62
2022/04/05 08:37:33;;;;;;;13.02;7.53;;;;;;;9.54;100.00;100585.38;5052499;28;20089;-62
2022/04/05 08:40:00;;;;;;;9.65;6.88;;;;;;;9.56;100.00;100587.91;5070851;28;20054;-61
2022/04/05 08:42:25;;;;;;;13.50;7.00;;;;;;;9.59;100.00;100590.31;5070603;28;20037;-61
2022/04/05 08:44:51;;;;;;;10.65;6.32;;;;;;;9.61;100.00;100589.25;5077384;28;20459;-61
2022/04/05 08:47:21;;;;;;;8.48;6.30;;;;;;;9.66;100.00;100590.69;5080691;28;20086;-61
2022/04/05 08:49:48;;;;;;;10.35;7.13;;;;;;;9.67;100.00;100585.28;5069737;28;20040;-61
2022/04/05 08:52:13;;;;;;;12.55;6.80;;;;;;;9.69;100.00;100596.63;5070554;28;20017;-61
2022/04/05 08:54:38;;;;;;;9.30;6.82;;;;;;;9.71;100.00;100592.03;5070271;28;20119;-62
2022/04/05 08:57:04;;;;;;;12.07;7.20;;;;;;;9.73;100.00;100594.56;5070424;28;20478;-62
2022/04/05 08:59:31;;;;;;;9.77;6.93;;;;;;;9.74;100.00;100596.25;5069805;28;20043;-62
2022/04/05 09:01:56;;;;;;;10.23;6.68;;;;;;;9.78;100.00;100597.72;5070042;28;20482;-62
2022/04/05 09:04:21;;;;;;;12.35;6.72;;;;;;;9.78;100.00;100598.56;5070329;28;20055;-62
2022/04/05 09:06:47;;;;;;;9.10;6.72;;;;;;;9.81;100.00;100595.66;5070549;28;20028;-62
2022/04/05 09:09:18;;;;;;;13.00;7.00;;;;;;;9.84;100.00;100602.53;5070228;28;20040;-62
2022/04/05 09:11:54;;;;;;;11.57;6.55;;;;;;;9.83;100.00;100592.91;5070531;28;20111;-62
2022/04/05 09:14:24;;;;;;;11.70;6.90;;;;;;;9.88;100.00;100605.81;5069639;28;20044;-62
2022/04/05 09:17:07;;;;;;;12.98;6.93;;;;;;;9.92;100.00;100600.13;5069569;28;20096;-62
2022/04/05 09:19:38;;;;;;;11.70;7.60;;;;;;;9.93;100.00;100607.13;5069700;28;20072;-62
2022/04/05 09:22:04;;;;;;;12.57;7.30;;;;;;;9.96;100.00;100614.84;5070034;28;20490;-63
2022/04/05 09:24:37;;;;;;;12.48;8.18;;;;;;;9.99;100.00;100605.81;5069713;28;20037;-62
2022/04/05 09:27:04;;;;;;;10.48;7.38;;;;;;;10.01;100.00;100609.19;5069899;28;20052;-63
2022/04/05 09:29:47;;;;;;;9.75;7.93;;;;;;;10.08;100.00;100609.56;5055639;28;20459;-62
2022/04/05 09:32:33;;;;;;;11.40;7.85;;;;;;;10.08;100.00;100609.56;5090290;28;20043;-62
2022/04/05 09:34:59;;;;;;;14.20;7.40;;;;;;;10.10;100.00;100613.78;5090317;28;20074;-62
2022/04/05 09:37:26;;;;;;;12.55;7.63;;;;;;;10.09;100.00;100614.75;5071405;28;20418;-62
2022/04/05 09:39:51;;;;;;;11.95;8.35;;;;;;;10.12;100.00;100611.84;5052007;28;20043;-62
2022/04/05 09:42:16;;;;;;;10.23;8.23;;;;;;;10.15;100.00;100621.38;5069435;28;20468;-62
2022/04/05 09:44:42;;;;;;;9.75;7.65;;;;;;;10.17;100.00;100622.97;5075595;28;20032;-63
2022/04/05 09:47:14;;;;;;;12.63;7.93;;;;;;;10.16;100.00;100617.78;5071910;28;20024;-63
2022/04/05 09:49:44;;;;;;;12.48;7.88;;;;;;;10.17;100.00;100611.47;5075086;28;20051;-63
2022/04/05 09:52:30;;;;;;;13.40;8.48;;;;;;;10.22;100.00;100608.47;5070003;28;20366;-61
2022/04/05 09:55:10;;;;;;;10.40;8.15;;;;;;;10.25;100.00;100617.03;5069642;28;20439;-61
2022/04/05 09:57:36;;;;;;;13.85;8.48;;;;;;;10.28;100.00;100622.09;5069823;28;20072;-61
2022/04/05 10:00:11;;;;;;;13.90;8.18;;;;;;;10.28;100.00;100618.63;5068651;28;20033;-62
2022/04/05 10:03:04;;;;;;;12.30;7.93;;;;;;;10.36;100.00;100618.88;5069893;28;20490;-61
2022/04/05 10:05:30;;;;;;;13.52;8.55;;;;;;;10.37;100.00;100623.22;5069697;28;20041;-61
2022/04/05 10:07:56;;;;;;;10.25;7.35;;;;;;;10.34;100.00;100618.13;5069772;28;20498;-61
2022/04/05 10:10:23;;;;;;;9.27;6.65;;;;;;;10.35;100.00;100623.31;5069290;28;20101;-61
2022/04/05 10:12:49;;;;;;;8.60;6.68;;;;;;;10.35;100.00;100619.84;5069545;28;20108;-62
2022/04/05 10:15:14;;;;;;;9.10;6.70;;;;;;;10.36;100.00;100621.53;5069235;28;20040;-62
2022/04/05 10:17:45;;;;;;;9.48;6.57;;;;;;;10.38;100.00;100627.56;5051674;28;20044;-61
2022/04/05 10:20:12;;;;;;;12.70;6.90;;;;;;;10.40;100.00;100624.78;5069170;28;20109;-62
2022/04/05 10:22:39;;;;;;;13.18;6.43;;;;;;;10.44;100.00;100632.41;5051449;28;20021;-61
2022/04/05 10:25:05;;;;;;;9.68;6.60;;;;;;;10.48;99.70;100627.69;5069366;28;20055;-62
2022/04/05 10:27:31;;;;;;;13.13;6.47;;;;;;;10.55;100.00;100626.22;5069308;28;20490;-61
2022/04/05 10:30:18;;;;;;;9.55;6.25;;;;;;;10.59;98.58;100627.69;5069315;28;20040;-61
2022/04/05 10:32:48;;;;;;;8.88;5.90;;;;;;;10.60;98.74;100626.69;5069602;28;20474;-61
2022/04/05 10:35:14;;;;;;;8.27;6.00;;;;;;;10.62;97.97;100622.09;5070166;28;20046;-62
2022/04/05 10:37:40;;;;;;;10.65;6.07;;;;;;;10.65;98.34;100623.66;5073546;28;20032;-61
2022/04/05 10:40:05;;;;;;;10.30;6.20;;;;;;;10.66;97.98;100620.91;5072419;28;20043;-62
2022/04/05 10:42:42;;;;;;;7.53;6.00;;;;;;;10.70;97.64;100617.00;5068718;28;20486;-61
2022/04/05 10:45:19;;;;;;;13.30;6.55;;;;;;;10.76;97.63;100621.00;5074879;28;20024;-62
2022/04/05 10:48:18;;;;;;;6.93;6.03;;;;;;;10.84;97.83;100615.91;5073342;28;20052;-62
2022/04/05 10:50:46;;;;;;;7.28;6.07;;;;;;;10.85;97.03;100620.22;5085136;28;20481;-62
2022/04/05 10:53:17;;;;;;;7.63;5.45;;;;;;;10.90;96.91;100622.53;5072632;28;20066;-62
2022/04/05 10:56:06;;;;;;;8.95;5.60;;;;;;;10.94;97.20;100618.63;5073163;28;20044;-61
2022/04/05 10:58:35;;;;;;;;;;;;;;;11.00;96.51;100620.78;5089151;28;20397;-62
2022/04/05 11:01:14;;;;;;;10.98;5.60;;;;;;;11.00;96.37;100615.47;5092900;28;19949;-62
2022/04/05 11:03:40;;;;;;;8.63;5.70;;;;;;;11.04;95.74;100614.28;5092833;28;20032;-62
2022/04/05 11:06:06;;;;;;;8.77;5.10;;;;;;;11.08;95.30;100620.19;5076002;28;20063;-62
2022/04/05 11:08:32;;;;;;;7.68;4.97;;;;;;;11.11;95.44;100620.75;5072397;28;20075;-61
2022/04/05 11:11:04;;;;;;;6.40;5.22;;;;;;;11.10;94.83;100615.56;5071848;28;20029;-62